sensor_id;sensor_type;location;lat;lon;timestamp;P1;durP1;ratioP1;P2;durP2;ratioP2
54871;SDS011;43914;57.680;11.982;2022-08-25T00:01:34;5.87;;;1.87;;
54871;SDS011;43914;57.680;11.982;2022-08-25T00:04:04;5.33;;;1.77;;
54871;SDS011;43914;57.680;11.982;2022-08-25T00:06:35;5.70;;;1.90;;
54871;SDS011;43914;57.680;11.982;2022-08-25T00:09:03;6.05;;;1.80;;
54871;SDS011;43914;57.680;11.982;2022-08-25T00:11:30;6.62;;;1.77;;
54871;SDS011;43914;57.680;11.982;2022-08-25T00:14:00;6.50;;;1.80;;
54871;SDS011;43914;57.680;11.982;2022-08-25T00:16:30;4.67;;;1.70;;
54871;SDS011;43914;57.680;11.982;2022-08-25T00:18:58;5.33;;;1.80;;
54871;SDS011;43914;57.680;11.982;2022-08-25T00:21:28;6.58;;;1.60;;
54871;SDS011;43914;57.680;11.982;2022-08-25T00:23:56;4.90;;;1.70;;
54871;SDS011;43914;57.680;11.982;2022-08-25T00:26:23;5.22;;;1.75;;
54871;SDS011;43914;57.680;11.982;2022-08-25T00:28:51;7.78;;;1.70;;
54871;SDS011;43914;57.680;11.982;2022-08-25T00:31:18;6.78;;;1.95;;
54871;SDS011;43914;57.680;11.982;2022-08-25T00:33:46;5.58;;;1.80;;
54871;SDS011;43914;57.680;11.982;2022-08-25T00:36:14;5.53;;;1.98;;
54871;SDS011;43914;57.680;11.982;2022-08-25T00:38:43;5.65;;;1.87;;
54871;SDS011;43914;57.680;11.982;2022-08-25T00:41:12;5.78;;;1.70;;
54871;SDS011;43914;57.680;11.982;2022-08-25T00:46:18;8.28;;;2.02;;
54871;SDS011;43914;57.680;11.982;2022-08-25T00:49:01;6.87;;;1.60;;
54871;SDS011;43914;57.680;11.982;2022-08-25T00:51:33;5.05;;;1.70;;
54871;SDS011;43914;57.680;11.982;2022-08-25T00:54:09;7.47;;;1.90;;
54871;SDS011;43914;57.680;11.982;2022-08-25T00:56:40;5.42;;;1.70;;
54871;SDS011;43914;57.680;11.982;2022-08-25T00:59:07;7.05;;;1.80;;
54871;SDS011;43914;57.680;11.982;2022-08-25T01:01:33;5.15;;;1.60;;
54871;SDS011;43914;57.680;11.982;2022-08-25T01:04:00;5.53;;;1.60;;
54871;SDS011;43914;57.680;11.982;2022-08-25T01:06:27;5.90;;;1.70;;
54871;SDS011;43914;57.680;11.982;2022-08-25T01:08:56;5.22;;;1.70;;
54871;SDS011;43914;57.680;11.982;2022-08-25T01:11:24;6.30;;;1.95;;
54871;SDS011;43914;57.680;11.982;2022-08-25T01:13:52;5.85;;;1.70;;
54871;SDS011;43914;57.680;11.982;2022-08-25T01:16:21;5.00;;;1.62;;
54871;SDS011;43914;57.680;11.982;2022-08-25T01:18:52;7.20;;;1.70;;
54871;SDS011;43914;57.680;11.982;2022-08-25T01:21:25;4.75;;;1.60;;
54871;SDS011;43914;57.680;11.982;2022-08-25T01:23:53;7.40;;;1.80;;
54871;SDS011;43914;57.680;11.982;2022-08-25T01:26:24;6.65;;;1.80;;
54871;SDS011;43914;57.680;11.982;2022-08-25T01:28:57;4.37;;;1.60;;
54871;SDS011;43914;57.680;11.982;2022-08-25T01:31:44;8.00;;;1.90;;
54871;SDS011;43914;57.680;11.982;2022-08-25T01:34:11;5.87;;;1.70;;
54871;SDS011;43914;57.680;11.982;2022-08-25T01:36:39;4.85;;;1.50;;
54871;SDS011;43914;57.680;11.982;2022-08-25T01:39:07;4.92;;;1.60;;
54871;SDS011;43914;57.680;11.982;2022-08-25T01:44:34;5.50;;;1.65;;
54871;SDS011;43914;57.680;11.982;2022-08-25T01:47:08;5.37;;;1.50;;
54871;SDS011;43914;57.680;11.982;2022-08-25T01:49:35;5.20;;;1.70;;
54871;SDS011;43914;57.680;11.982;2022-08-25T01:52:06;6.45;;;1.75;;
54871;SDS011;43914;57.680;11.982;2022-08-25T01:54:41;5.40;;;1.87;;
54871;SDS011;43914;57.680;11.982;2022-08-25T01:57:08;6.25;;;1.67;;
54871;SDS011;43914;57.680;11.982;2022-08-25T01:59:34;6.80;;;1.70;;
54871;SDS011;43914;57.680;11.982;2022-08-25T02:02:00;5.15;;;1.65;;
54871;SDS011;43914;57.680;11.982;2022-08-25T02:04:27;4.75;;;1.60;;
54871;SDS011;43914;57.680;11.982;2022-08-25T02:06:55;5.70;;;1.55;;
54871;SDS011;43914;57.680;11.982;2022-08-25T02:09:21;5.20;;;1.60;;
54871;SDS011;43914;57.680;11.982;2022-08-25T02:11:48;5.47;;;1.82;;
54871;SDS011;43914;57.680;11.982;2022-08-25T02:14:14;5.22;;;1.65;;
54871;SDS011;43914;57.680;11.982;2022-08-25T02:16:43;5.87;;;1.80;;
54871;SDS011;43914;57.680;11.982;2022-08-25T02:19:15;5.10;;;1.98;;
54871;SDS011;43914;57.680;11.982;2022-08-25T02:21:42;6.20;;;1.90;;
54871;SDS011;43914;57.680;11.982;2022-08-25T02:24:09;6.05;;;1.82;;
54871;SDS011;43914;57.680;11.982;2022-08-25T02:26:36;5.35;;;1.62;;
54871;SDS011;43914;57.680;11.982;2022-08-25T02:29:03;5.80;;;1.90;;
54871;SDS011;43914;57.680;11.982;2022-08-25T02:31:31;5.83;;;1.75;;
54871;SDS011;43914;57.680;11.982;2022-08-25T02:33:58;5.87;;;1.55;;
54871;SDS011;43914;57.680;11.982;2022-08-25T02:36:26;4.45;;;1.50;;
54871;SDS011;43914;57.680;11.982;2022-08-25T02:38:53;5.08;;;1.80;;
54871;SDS011;43914;57.680;11.982;2022-08-25T02:41:20;5.50;;;1.80;;
54871;SDS011;43914;57.680;11.982;2022-08-25T02:43:49;5.30;;;1.80;;
54871;SDS011;43914;57.680;11.982;2022-08-25T02:46:16;4.62;;;1.50;;
54871;SDS011;43914;57.680;11.982;2022-08-25T02:48:44;5.85;;;1.92;;
54871;SDS011;43914;57.680;11.982;2022-08-25T02:51:11;5.80;;;1.80;;
54871;SDS011;43914;57.680;11.982;2022-08-25T02:53:39;5.75;;;1.80;;
54871;SDS011;43914;57.680;11.982;2022-08-25T02:56:07;6.25;;;1.87;;
54871;SDS011;43914;57.680;11.982;2022-08-25T02:58:35;4.85;;;1.62;;
54871;SDS011;43914;57.680;11.982;2022-08-25T03:01:03;6.45;;;1.95;;
54871;SDS011;43914;57.680;11.982;2022-08-25T03:03:31;5.95;;;1.70;;
54871;SDS011;43914;57.680;11.982;2022-08-25T03:05:58;5.55;;;1.98;;
54871;SDS011;43914;57.680;11.982;2022-08-25T03:08:25;5.00;;;1.70;;
54871;SDS011;43914;57.680;11.982;2022-08-25T03:10:51;7.37;;;1.90;;
54871;SDS011;43914;57.680;11.982;2022-08-25T03:13:17;5.28;;;1.70;;
54871;SDS011;43914;57.680;11.982;2022-08-25T03:15:43;6.75;;;1.72;;
54871;SDS011;43914;57.680;11.982;2022-08-25T03:18:10;5.90;;;1.92;;
54871;SDS011;43914;57.680;11.982;2022-08-25T03:20:37;6.83;;;1.80;;
54871;SDS011;43914;57.680;11.982;2022-08-25T03:23:04;5.58;;;1.65;;
54871;SDS011;43914;57.680;11.982;2022-08-25T03:25:31;5.30;;;1.60;;
54871;SDS011;43914;57.680;11.982;2022-08-25T03:28:15;5.12;;;1.77;;
54871;SDS011;43914;57.680;11.982;2022-08-25T03:30:43;6.62;;;2.00;;
54871;SDS011;43914;57.680;11.982;2022-08-25T03:33:09;6.20;;;1.70;;
54871;SDS011;43914;57.680;11.982;2022-08-25T03:35:36;5.08;;;1.80;;
54871;SDS011;43914;57.680;11.982;2022-08-25T03:38:02;6.37;;;1.90;;
54871;SDS011;43914;57.680;11.982;2022-08-25T03:40:29;6.03;;;1.90;;
54871;SDS011;43914;57.680;11.982;2022-08-25T03:42:55;6.08;;;1.77;;
54871;SDS011;43914;57.680;11.982;2022-08-25T03:45:22;6.28;;;1.80;;
54871;SDS011;43914;57.680;11.982;2022-08-25T03:47:50;5.15;;;1.70;;
54871;SDS011;43914;57.680;11.982;2022-08-25T03:50:18;6.12;;;1.85;;
54871;SDS011;43914;57.680;11.982;2022-08-25T03:52:49;8.55;;;1.90;;
54871;SDS011;43914;57.680;11.982;2022-08-25T03:55:19;6.77;;;2.00;;
54871;SDS011;43914;57.680;11.982;2022-08-25T03:57:47;5.67;;;1.75;;
54871;SDS011;43914;57.680;11.982;2022-08-25T04:00:13;6.10;;;1.75;;
54871;SDS011;43914;57.680;11.982;2022-08-25T04:02:40;6.50;;;1.92;;
54871;SDS011;43914;57.680;11.982;2022-08-25T04:05:07;7.08;;;1.80;;
54871;SDS011;43914;57.680;11.982;2022-08-25T04:07:34;5.10;;;1.85;;
54871;SDS011;43914;57.680;11.982;2022-08-25T04:10:00;4.75;;;1.60;;
54871;SDS011;43914;57.680;11.982;2022-08-25T04:12:26;5.47;;;1.72;;
54871;SDS011;43914;57.680;11.982;2022-08-25T04:14:52;6.45;;;1.70;;
54871;SDS011;43914;57.680;11.982;2022-08-25T04:17:18;7.40;;;1.90;;
54871;SDS011;43914;57.680;11.982;2022-08-25T04:19:44;4.87;;;1.90;;
54871;SDS011;43914;57.680;11.982;2022-08-25T04:22:10;6.65;;;1.80;;
54871;SDS011;43914;57.680;11.982;2022-08-25T04:24:36;6.08;;;1.90;;
54871;SDS011;43914;57.680;11.982;2022-08-25T04:27:03;6.42;;;1.90;;
54871;SDS011;43914;57.680;11.982;2022-08-25T04:29:29;8.30;;;1.82;;
54871;SDS011;43914;57.680;11.982;2022-08-25T04:31:55;5.58;;;1.80;;
54871;SDS011;43914;57.680;11.982;2022-08-25T04:34:21;5.55;;;2.00;;
54871;SDS011;43914;57.680;11.982;2022-08-25T04:36:50;6.92;;;1.87;;
54871;SDS011;43914;57.680;11.982;2022-08-25T04:39:16;5.87;;;1.90;;
54871;SDS011;43914;57.680;11.982;2022-08-25T04:41:45;7.55;;;1.98;;
54871;SDS011;43914;57.680;11.982;2022-08-25T04:44:12;7.35;;;2.08;;
54871;SDS011;43914;57.680;11.982;2022-08-25T04:46:39;6.33;;;1.92;;
54871;SDS011;43914;57.680;11.982;2022-08-25T04:49:05;7.05;;;1.92;;
54871;SDS011;43914;57.680;11.982;2022-08-25T04:51:35;6.70;;;1.82;;
54871;SDS011;43914;57.680;11.982;2022-08-25T04:54:05;6.17;;;1.92;;
54871;SDS011;43914;57.680;11.982;2022-08-25T04:56:35;5.47;;;1.75;;
54871;SDS011;43914;57.680;11.982;2022-08-25T04:59:06;4.75;;;1.70;;
54871;SDS011;43914;57.680;11.982;2022-08-25T05:01:35;5.45;;;1.70;;
54871;SDS011;43914;57.680;11.982;2022-08-25T05:04:03;6.47;;;1.85;;
54871;SDS011;43914;57.680;11.982;2022-08-25T05:06:31;5.90;;;1.90;;
54871;SDS011;43914;57.680;11.982;2022-08-25T05:08:58;6.25;;;2.08;;
54871;SDS011;43914;57.680;11.982;2022-08-25T05:11:26;5.92;;;1.90;;
54871;SDS011;43914;57.680;11.982;2022-08-25T05:13:53;6.67;;;2.15;;
54871;SDS011;43914;57.680;11.982;2022-08-25T05:16:21;6.10;;;1.85;;
54871;SDS011;43914;57.680;11.982;2022-08-25T05:18:48;10.70;;;2.30;;
54871;SDS011;43914;57.680;11.982;2022-08-25T05:21:17;8.43;;;1.90;;
54871;SDS011;43914;57.680;11.982;2022-08-25T05:23:47;6.62;;;1.95;;
54871;SDS011;43914;57.680;11.982;2022-08-25T05:26:17;6.67;;;1.98;;
54871;SDS011;43914;57.680;11.982;2022-08-25T05:28:48;7.42;;;2.10;;
54871;SDS011;43914;57.680;11.982;2022-08-25T05:31:15;6.30;;;2.17;;
54871;SDS011;43914;57.680;11.982;2022-08-25T05:33:43;5.87;;;1.80;;
54871;SDS011;43914;57.680;11.982;2022-08-25T05:36:10;6.17;;;1.80;;
54871;SDS011;43914;57.680;11.982;2022-08-25T05:38:38;5.15;;;1.80;;
54871;SDS011;43914;57.680;11.982;2022-08-25T05:41:09;7.45;;;2.05;;
54871;SDS011;43914;57.680;11.982;2022-08-25T05:43:40;6.92;;;2.22;;
54871;SDS011;43914;57.680;11.982;2022-08-25T05:46:09;7.12;;;1.90;;
54871;SDS011;43914;57.680;11.982;2022-08-25T05:48:37;6.12;;;1.82;;
54871;SDS011;43914;57.680;11.982;2022-08-25T05:51:05;7.97;;;2.60;;
54871;SDS011;43914;57.680;11.982;2022-08-25T05:53:34;7.62;;;2.20;;
54871;SDS011;43914;57.680;11.982;2022-08-25T05:56:03;6.83;;;2.10;;
54871;SDS011;43914;57.680;11.982;2022-08-25T05:58:29;5.58;;;1.90;;
54871;SDS011;43914;57.680;11.982;2022-08-25T06:00:57;7.50;;;2.00;;
54871;SDS011;43914;57.680;11.982;2022-08-25T06:03:43;6.42;;;1.90;;
54871;SDS011;43914;57.680;11.982;2022-08-25T06:06:11;6.60;;;2.10;;
54871;SDS011;43914;57.680;11.982;2022-08-25T06:08:37;5.03;;;1.67;;
54871;SDS011;43914;57.680;11.982;2022-08-25T06:11:05;8.25;;;2.08;;
54871;SDS011;43914;57.680;11.982;2022-08-25T06:13:31;6.45;;;2.02;;
54871;SDS011;43914;57.680;11.982;2022-08-25T06:15:58;7.62;;;2.10;;
54871;SDS011;43914;57.680;11.982;2022-08-25T06:18:25;7.58;;;1.82;;
54871;SDS011;43914;57.680;11.982;2022-08-25T06:20:51;6.62;;;1.90;;
54871;SDS011;43914;57.680;11.982;2022-08-25T06:23:17;6.12;;;2.08;;
54871;SDS011;43914;57.680;11.982;2022-08-25T06:25:48;6.00;;;1.70;;
54871;SDS011;43914;57.680;11.982;2022-08-25T06:28:17;5.12;;;1.60;;
54871;SDS011;43914;57.680;11.982;2022-08-25T06:30:45;6.28;;;1.65;;
54871;SDS011;43914;57.680;11.982;2022-08-25T06:33:11;7.60;;;1.90;;
54871;SDS011;43914;57.680;11.982;2022-08-25T06:35:43;8.08;;;1.98;;
54871;SDS011;43914;57.680;11.982;2022-08-25T06:38:07;9.45;;;3.05;;
54871;SDS011;43914;57.680;11.982;2022-08-25T06:40:34;5.95;;;2.00;;
54871;SDS011;43914;57.680;11.982;2022-08-25T06:43:00;7.95;;;1.95;;
54871;SDS011;43914;57.680;11.982;2022-08-25T06:45:26;6.45;;;1.80;;
54871;SDS011;43914;57.680;11.982;2022-08-25T06:47:52;7.85;;;1.90;;
54871;SDS011;43914;57.680;11.982;2022-08-25T06:50:19;7.03;;;2.15;;
54871;SDS011;43914;57.680;11.982;2022-08-25T06:52:45;7.83;;;2.10;;
54871;SDS011;43914;57.680;11.982;2022-08-25T06:55:11;8.15;;;2.05;;
54871;SDS011;43914;57.680;11.982;2022-08-25T06:57:37;6.65;;;1.80;;
54871;SDS011;43914;57.680;11.982;2022-08-25T07:00:04;5.90;;;1.90;;
54871;SDS011;43914;57.680;11.982;2022-08-25T07:02:35;6.33;;;2.10;;
54871;SDS011;43914;57.680;11.982;2022-08-25T07:05:03;5.47;;;1.85;;
54871;SDS011;43914;57.680;11.982;2022-08-25T07:07:30;7.25;;;2.08;;
54871;SDS011;43914;57.680;11.982;2022-08-25T07:09:57;6.65;;;2.30;;
54871;SDS011;43914;57.680;11.982;2022-08-25T07:12:23;7.55;;;2.40;;
54871;SDS011;43914;57.680;11.982;2022-08-25T07:14:49;8.55;;;2.25;;
54871;SDS011;43914;57.680;11.982;2022-08-25T07:17:15;7.55;;;2.20;;
54871;SDS011;43914;57.680;11.982;2022-08-25T07:19:42;7.80;;;2.00;;
54871;SDS011;43914;57.680;11.982;2022-08-25T07:22:08;6.12;;;2.10;;
54871;SDS011;43914;57.680;11.982;2022-08-25T07:24:36;5.78;;;2.05;;
54871;SDS011;43914;57.680;11.982;2022-08-25T07:27:02;6.55;;;2.10;;
54871;SDS011;43914;57.680;11.982;2022-08-25T07:29:29;8.08;;;2.30;;
54871;SDS011;43914;57.680;11.982;2022-08-25T07:31:57;8.00;;;2.00;;
54871;SDS011;43914;57.680;11.982;2022-08-25T07:34:23;7.42;;;2.40;;
54871;SDS011;43914;57.680;11.982;2022-08-25T07:37:08;7.60;;;2.20;;
54871;SDS011;43914;57.680;11.982;2022-08-25T07:39:34;6.87;;;2.12;;
54871;SDS011;43914;57.680;11.982;2022-08-25T07:42:00;7.40;;;2.42;;
54871;SDS011;43914;57.680;11.982;2022-08-25T07:44:26;8.18;;;2.58;;
54871;SDS011;43914;57.680;11.982;2022-08-25T07:46:52;12.35;;;2.70;;
54871;SDS011;43914;57.680;11.982;2022-08-25T07:49:19;9.35;;;2.50;;
54871;SDS011;43914;57.680;11.982;2022-08-25T07:51:47;11.33;;;2.45;;
54871;SDS011;43914;57.680;11.982;2022-08-25T07:54:14;8.93;;;2.50;;
54871;SDS011;43914;57.680;11.982;2022-08-25T07:56:41;8.43;;;2.67;;
54871;SDS011;43914;57.680;11.982;2022-08-25T07:59:08;7.62;;;2.27;;
54871;SDS011;43914;57.680;11.982;2022-08-25T08:01:34;7.55;;;2.50;;
54871;SDS011;43914;57.680;11.982;2022-08-25T08:04:01;7.72;;;2.35;;
54871;SDS011;43914;57.680;11.982;2022-08-25T08:06:29;9.10;;;2.37;;
54871;SDS011;43914;57.680;11.982;2022-08-25T08:08:55;8.45;;;2.37;;
54871;SDS011;43914;57.680;11.982;2022-08-25T08:11:30;7.40;;;2.15;;
54871;SDS011;43914;57.680;11.982;2022-08-25T08:13:56;11.63;;;2.98;;
54871;SDS011;43914;57.680;11.982;2022-08-25T08:16:24;9.75;;;2.67;;
54871;SDS011;43914;57.680;11.982;2022-08-25T08:18:54;6.87;;;2.20;;
54871;SDS011;43914;57.680;11.982;2022-08-25T08:21:24;12.15;;;2.67;;
54871;SDS011;43914;57.680;11.982;2022-08-25T08:23:52;8.15;;;2.62;;
54871;SDS011;43914;57.680;11.982;2022-08-25T08:26:20;7.92;;;2.42;;
54871;SDS011;43914;57.680;11.982;2022-08-25T08:28:48;7.28;;;2.22;;
54871;SDS011;43914;57.680;11.982;2022-08-25T08:31:15;7.58;;;2.50;;
54871;SDS011;43914;57.680;11.982;2022-08-25T08:33:45;11.12;;;2.60;;
54871;SDS011;43914;57.680;11.982;2022-08-25T08:36:13;8.55;;;2.50;;
54871;SDS011;43914;57.680;11.982;2022-08-25T08:38:40;9.18;;;2.77;;
54871;SDS011;43914;57.680;11.982;2022-08-25T08:46:57;8.98;;;2.40;;
54871;SDS011;43914;57.680;11.982;2022-08-25T08:55:22;6.55;;;2.45;;
54871;SDS011;43914;57.680;11.982;2022-08-25T08:58:10;9.30;;;2.40;;
54871;SDS011;43914;57.680;11.982;2022-08-25T09:00:53;8.63;;;2.20;;
54871;SDS011;43914;57.680;11.982;2022-08-25T09:06:09;9.33;;;2.30;;
54871;SDS011;43914;57.680;11.982;2022-08-25T09:08:45;9.15;;;2.47;;
54871;SDS011;43914;57.680;11.982;2022-08-25T09:11:23;6.12;;;2.05;;
54871;SDS011;43914;57.680;11.982;2022-08-25T09:17:17;7.60;;;1.98;;
54871;SDS011;43914;57.680;11.982;2022-08-25T09:20:02;7.35;;;2.22;;
54871;SDS011;43914;57.680;11.982;2022-08-25T09:25:51;7.28;;;2.15;;
54871;SDS011;43914;57.680;11.982;2022-08-25T09:31:26;7.85;;;2.00;;
54871;SDS011;43914;57.680;11.982;2022-08-25T09:34:00;7.00;;;2.00;;
54871;SDS011;43914;57.680;11.982;2022-08-25T09:36:30;8.58;;;2.10;;
54871;SDS011;43914;57.680;11.982;2022-08-25T09:38:58;7.85;;;1.90;;
54871;SDS011;43914;57.680;11.982;2022-08-25T09:47:12;7.75;;;2.05;;
54871;SDS011;43914;57.680;11.982;2022-08-25T09:49:59;6.15;;;1.85;;
54871;SDS011;43914;57.680;11.982;2022-08-25T09:52:35;7.72;;;2.10;;
54871;SDS011;43914;57.680;11.982;2022-08-25T09:57:55;9.88;;;2.58;;
54871;SDS011;43914;57.680;11.982;2022-08-25T10:00:23;8.23;;;2.52;;
54871;SDS011;43914;57.680;11.982;2022-08-25T10:03:10;6.20;;;1.92;;
54871;SDS011;43914;57.680;11.982;2022-08-25T10:11:08;5.65;;;2.08;;
54871;SDS011;43914;57.680;11.982;2022-08-25T10:13:42;7.33;;;2.20;;
54871;SDS011;43914;57.680;11.982;2022-08-25T10:16:23;7.47;;;2.50;;
54871;SDS011;43914;57.680;11.982;2022-08-25T10:19:02;8.43;;;2.25;;
54871;SDS011;43914;57.680;11.982;2022-08-25T10:21:32;9.13;;;2.20;;
54871;SDS011;43914;57.680;11.982;2022-08-25T10:24:02;6.92;;;2.40;;
54871;SDS011;43914;57.680;11.982;2022-08-25T10:32:23;7.08;;;2.20;;
54871;SDS011;43914;57.680;11.982;2022-08-25T10:35:16;10.20;;;2.22;;
54871;SDS011;43914;57.680;11.982;2022-08-25T10:40:25;6.70;;;1.92;;
54871;SDS011;43914;57.680;11.982;2022-08-25T10:43:06;8.70;;;2.27;;
54871;SDS011;43914;57.680;11.982;2022-08-25T10:45:37;8.53;;;2.37;;
54871;SDS011;43914;57.680;11.982;2022-08-25T10:48:22;6.92;;;1.92;;
54871;SDS011;43914;57.680;11.982;2022-08-25T10:50:57;7.78;;;2.10;;
54871;SDS011;43914;57.680;11.982;2022-08-25T11:04:56;5.85;;;1.80;;
54871;SDS011;43914;57.680;11.982;2022-08-25T11:07:39;8.05;;;2.00;;
54871;SDS011;43914;57.680;11.982;2022-08-25T11:10:16;6.08;;;1.80;;
54871;SDS011;43914;57.680;11.982;2022-08-25T11:12:49;7.47;;;2.12;;
54871;SDS011;43914;57.680;11.982;2022-08-25T11:15:28;5.75;;;1.72;;
54871;SDS011;43914;57.680;11.982;2022-08-25T11:18:08;7.17;;;1.90;;
54871;SDS011;43914;57.680;11.982;2022-08-25T11:20:42;6.40;;;1.90;;
54871;SDS011;43914;57.680;11.982;2022-08-25T11:26:12;8.50;;;1.90;;
54871;SDS011;43914;57.680;11.982;2022-08-25T11:28:50;5.60;;;1.72;;
54871;SDS011;43914;57.680;11.982;2022-08-25T11:31:22;5.33;;;1.55;;
54871;SDS011;43914;57.680;11.982;2022-08-25T11:33:51;6.40;;;1.52;;
54871;SDS011;43914;57.680;11.982;2022-08-25T11:36:33;4.90;;;1.50;;
54871;SDS011;43914;57.680;11.982;2022-08-25T11:39:12;10.68;;;1.67;;
54871;SDS011;43914;57.680;11.982;2022-08-25T11:44:49;5.53;;;1.50;;
54871;SDS011;43914;57.680;11.982;2022-08-25T11:47:44;4.97;;;1.45;;
54871;SDS011;43914;57.680;11.982;2022-08-25T11:50:28;4.78;;;1.50;;
54871;SDS011;43914;57.680;11.982;2022-08-25T11:55:53;8.15;;;1.92;;
54871;SDS011;43914;57.680;11.982;2022-08-25T12:23:29;4.50;;;1.37;;
54871;SDS011;43914;57.680;11.982;2022-08-25T12:34:37;4.03;;;1.20;;
54871;SDS011;43914;57.680;11.982;2022-08-25T12:37:24;4.90;;;1.32;;
54871;SDS011;43914;57.680;11.982;2022-08-25T12:40:02;5.72;;;1.40;;
54871;SDS011;43914;57.680;11.982;2022-08-25T12:42:37;4.25;;;1.22;;
54871;SDS011;43914;57.680;11.982;2022-08-25T12:56:34;4.28;;;1.30;;
54871;SDS011;43914;57.680;11.982;2022-08-25T12:59:15;4.58;;;1.30;;
54871;SDS011;43914;57.680;11.982;2022-08-25T13:01:51;4.40;;;1.30;;
54871;SDS011;43914;57.680;11.982;2022-08-25T13:13:23;4.47;;;1.20;;
54871;SDS011;43914;57.680;11.982;2022-08-25T13:16:16;7.65;;;1.32;;
54871;SDS011;43914;57.680;11.982;2022-08-25T13:18:46;5.20;;;1.20;;
54871;SDS011;43914;57.680;11.982;2022-08-25T13:21:14;3.25;;;1.15;;
54871;SDS011;43914;57.680;11.982;2022-08-25T13:24:03;4.58;;;1.30;;
54871;SDS011;43914;57.680;11.982;2022-08-25T13:26:45;4.50;;;1.27;;
54871;SDS011;43914;57.680;11.982;2022-08-25T13:29:20;6.95;;;1.50;;
54871;SDS011;43914;57.680;11.982;2022-08-25T13:32:11;3.92;;;1.22;;
54871;SDS011;43914;57.680;11.982;2022-08-25T13:34:27;4.17;;;1.30;;
54871;SDS011;43914;57.680;11.982;2022-08-25T13:37:07;5.20;;;1.27;;
54871;SDS011;43914;57.680;11.982;2022-08-25T13:40:10;5.40;;;1.45;;
54871;SDS011;43914;57.680;11.982;2022-08-25T13:42:44;5.87;;;1.27;;
54871;SDS011;43914;57.680;11.982;2022-08-25T13:45:19;8.03;;;1.40;;
54871;SDS011;43914;57.680;11.982;2022-08-25T13:47:47;6.55;;;1.40;;
54871;SDS011;43914;57.680;11.982;2022-08-25T13:53:46;8.33;;;1.70;;
54871;SDS011;43914;57.680;11.982;2022-08-25T13:55:49;5.75;;;1.62;;
54871;SDS011;43914;57.680;11.982;2022-08-25T13:58:20;6.58;;;1.70;;
54871;SDS011;43914;57.680;11.982;2022-08-25T14:03:37;5.25;;;1.45;;
54871;SDS011;43914;57.680;11.982;2022-08-25T14:06:08;8.78;;;1.60;;
54871;SDS011;43914;57.680;11.982;2022-08-25T14:11:28;7.90;;;1.47;;
54871;SDS011;43914;57.680;11.982;2022-08-25T14:14:50;6.37;;;1.43;;
54871;SDS011;43914;57.680;11.982;2022-08-25T14:19:41;6.17;;;1.60;;
54871;SDS011;43914;57.680;11.982;2022-08-25T14:22:11;7.10;;;1.62;;
54871;SDS011;43914;57.680;11.982;2022-08-25T14:24:38;9.15;;;1.60;;
54871;SDS011;43914;57.680;11.982;2022-08-25T14:27:05;6.05;;;1.40;;
54871;SDS011;43914;57.680;11.982;2022-08-25T14:29:31;5.60;;;1.40;;
54871;SDS011;43914;57.680;11.982;2022-08-25T14:31:59;9.80;;;1.80;;
54871;SDS011;43914;57.680;11.982;2022-08-25T14:34:28;8.08;;;1.50;;
54871;SDS011;43914;57.680;11.982;2022-08-25T14:36:57;5.97;;;1.80;;
54871;SDS011;43914;57.680;11.982;2022-08-25T14:39:26;6.87;;;1.50;;
54871;SDS011;43914;57.680;11.982;2022-08-25T14:41:53;6.28;;;1.55;;
54871;SDS011;43914;57.680;11.982;2022-08-25T14:44:19;9.90;;;1.87;;
54871;SDS011;43914;57.680;11.982;2022-08-25T14:46:52;8.83;;;1.80;;
54871;SDS011;43914;57.680;11.982;2022-08-25T14:49:22;6.97;;;1.60;;
54871;SDS011;43914;57.680;11.982;2022-08-25T14:51:51;5.42;;;1.55;;
54871;SDS011;43914;57.680;11.982;2022-08-25T14:54:17;4.75;;;1.57;;
54871;SDS011;43914;57.680;11.982;2022-08-25T14:56:48;9.23;;;1.65;;
54871;SDS011;43914;57.680;11.982;2022-08-25T14:59:14;9.23;;;1.57;;
54871;SDS011;43914;57.680;11.982;2022-08-25T15:01:40;8.45;;;1.60;;
54871;SDS011;43914;57.680;11.982;2022-08-25T15:04:11;5.83;;;1.50;;
54871;SDS011;43914;57.680;11.982;2022-08-25T15:06:40;4.80;;;1.40;;
54871;SDS011;43914;57.680;11.982;2022-08-25T15:09:07;8.18;;;1.70;;
54871;SDS011;43914;57.680;11.982;2022-08-25T15:11:41;6.95;;;1.60;;
54871;SDS011;43914;57.680;11.982;2022-08-25T15:14:08;4.60;;;1.47;;
54871;SDS011;43914;57.680;11.982;2022-08-25T15:16:37;4.47;;;1.42;;
54871;SDS011;43914;57.680;11.982;2022-08-25T15:19:10;5.90;;;1.55;;
54871;SDS011;43914;57.680;11.982;2022-08-25T15:21:40;5.97;;;1.40;;
54871;SDS011;43914;57.680;11.982;2022-08-25T15:24:08;6.22;;;1.35;;
54871;SDS011;43914;57.680;11.982;2022-08-25T15:26:40;6.72;;;1.50;;
54871;SDS011;43914;57.680;11.982;2022-08-25T15:29:17;8.20;;;1.70;;
54871;SDS011;43914;57.680;11.982;2022-08-25T15:31:43;4.37;;;1.20;;
54871;SDS011;43914;57.680;11.982;2022-08-25T15:34:12;6.67;;;1.50;;
54871;SDS011;43914;57.680;11.982;2022-08-25T15:36:39;11.25;;;1.80;;
54871;SDS011;43914;57.680;11.982;2022-08-25T15:39:06;4.60;;;1.30;;
54871;SDS011;43914;57.680;11.982;2022-08-25T15:41:33;7.22;;;1.52;;
54871;SDS011;43914;57.680;11.982;2022-08-25T15:44:01;6.45;;;1.62;;
54871;SDS011;43914;57.680;11.982;2022-08-25T15:46:30;9.73;;;1.70;;
54871;SDS011;43914;57.680;11.982;2022-08-25T15:48:58;5.80;;;1.40;;
54871;SDS011;43914;57.680;11.982;2022-08-25T15:51:25;8.45;;;1.70;;
54871;SDS011;43914;57.680;11.982;2022-08-25T15:53:52;6.20;;;1.40;;
54871;SDS011;43914;57.680;11.982;2022-08-25T15:56:19;6.45;;;1.50;;
54871;SDS011;43914;57.680;11.982;2022-08-25T15:58:47;6.40;;;1.52;;
54871;SDS011;43914;57.680;11.982;2022-08-25T16:01:15;9.63;;;1.60;;
54871;SDS011;43914;57.680;11.982;2022-08-25T16:03:45;4.37;;;1.20;;
54871;SDS011;43914;57.680;11.982;2022-08-25T16:06:12;6.03;;;1.55;;
54871;SDS011;43914;57.680;11.982;2022-08-25T16:08:38;4.92;;;1.50;;
54871;SDS011;43914;57.680;11.982;2022-08-25T16:11:05;8.05;;;1.60;;
54871;SDS011;43914;57.680;11.982;2022-08-25T16:13:36;8.18;;;1.55;;
54871;SDS011;43914;57.680;11.982;2022-08-25T16:16:05;7.22;;;1.70;;
54871;SDS011;43914;57.680;11.982;2022-08-25T16:18:30;6.65;;;1.60;;
54871;SDS011;43914;57.680;11.982;2022-08-25T16:20:56;6.47;;;1.60;;
54871;SDS011;43914;57.680;11.982;2022-08-25T16:23:22;6.05;;;1.57;;
54871;SDS011;43914;57.680;11.982;2022-08-25T16:25:48;5.60;;;1.47;;
54871;SDS011;43914;57.680;11.982;2022-08-25T16:28:15;6.30;;;1.42;;
54871;SDS011;43914;57.680;11.982;2022-08-25T16:30:46;5.28;;;1.50;;
54871;SDS011;43914;57.680;11.982;2022-08-25T16:33:13;6.75;;;1.70;;
54871;SDS011;43914;57.680;11.982;2022-08-25T16:35:41;6.97;;;1.55;;
54871;SDS011;43914;57.680;11.982;2022-08-25T16:38:08;5.83;;;1.72;;
54871;SDS011;43914;57.680;11.982;2022-08-25T16:40:38;5.58;;;1.57;;
54871;SDS011;43914;57.680;11.982;2022-08-25T16:43:06;7.08;;;1.72;;
54871;SDS011;43914;57.680;11.982;2022-08-25T16:45:33;6.92;;;1.70;;
54871;SDS011;43914;57.680;11.982;2022-08-25T16:47:59;5.78;;;1.77;;
54871;SDS011;43914;57.680;11.982;2022-08-25T16:50:26;6.00;;;1.70;;
54871;SDS011;43914;57.680;11.982;2022-08-25T16:52:55;5.83;;;1.87;;
54871;SDS011;43914;57.680;11.982;2022-08-25T16:55:41;5.47;;;1.75;;
54871;SDS011;43914;57.680;11.982;2022-08-25T16:58:08;10.00;;;1.80;;
54871;SDS011;43914;57.680;11.982;2022-08-25T17:00:35;6.47;;;1.87;;
54871;SDS011;43914;57.680;11.982;2022-08-25T17:03:03;6.05;;;1.77;;
54871;SDS011;43914;57.680;11.982;2022-08-25T17:05:31;7.00;;;1.80;;
54871;SDS011;43914;57.680;11.982;2022-08-25T17:08:02;8.25;;;2.00;;